sensor_id;sensor_type;location;lat;lon;timestamp;P1;durP1;ratioP1;P2;durP2;ratioP2
51006;SDS011;37034;47.886;-3.904;2022-07-18T00:02:49;7.82;;;1.85;;
51006;SDS011;37034;47.886;-3.904;2022-07-18T00:05:14;7.70;;;1.95;;
51006;SDS011;37034;47.886;-3.904;2022-07-18T00:07:40;4.22;;;1.65;;
51006;SDS011;37034;47.886;-3.904;2022-07-18T00:12:31;4.70;;;1.90;;
51006;SDS011;37034;47.886;-3.904;2022-07-18T00:17:23;4.50;;;1.73;;
51006;SDS011;37034;47.886;-3.904;2022-07-18T00:22:14;8.18;;;2.00;;
51006;SDS011;37034;47.886;-3.904;2022-07-18T00:27:06;3.75;;;1.63;;
51006;SDS011;37034;47.886;-3.904;2022-07-18T00:29:32;4.47;;;1.80;;
51006;SDS011;37034;47.886;-3.904;2022-07-18T00:32:02;6.90;;;2.10;;
51006;SDS011;37034;47.886;-3.904;2022-07-18T00:34:29;6.80;;;1.65;;
51006;SDS011;37034;47.886;-3.904;2022-07-18T00:39:20;7.10;;;2.03;;
51006;SDS011;37034;47.886;-3.904;2022-07-18T00:41:47;3.83;;;1.80;;
51006;SDS011;37034;47.886;-3.904;2022-07-18T00:44:20;4.22;;;1.70;;
51006;SDS011;37034;47.886;-3.904;2022-07-18T00:46:51;2.70;;;1.80;;
51006;SDS011;37034;47.886;-3.904;2022-07-18T00:49:19;4.63;;;1.60;;
51006;SDS011;37034;47.886;-3.904;2022-07-18T00:54:11;4.07;;;1.80;;
51006;SDS011;37034;47.886;-3.904;2022-07-18T00:56:37;3.80;;;1.65;;
51006;SDS011;37034;47.886;-3.904;2022-07-18T01:01:28;4.32;;;1.50;;
51006;SDS011;37034;47.886;-3.904;2022-07-18T01:04:22;2.85;;;1.50;;
51006;SDS011;37034;47.886;-3.904;2022-07-18T01:06:49;3.97;;;1.63;;
51006;SDS011;37034;47.886;-3.904;2022-07-18T01:09:16;3.72;;;1.80;;
51006;SDS011;37034;47.886;-3.904;2022-07-18T01:11:43;4.13;;;1.60;;
51006;SDS011;37034;47.886;-3.904;2022-07-18T01:14:10;4.72;;;1.90;;
51006;SDS011;37034;47.886;-3.904;2022-07-18T01:16:36;4.40;;;1.70;;
51006;SDS011;37034;47.886;-3.904;2022-07-18T01:21:28;8.70;;;1.55;;
51006;SDS011;37034;47.886;-3.904;2022-07-18T01:26:19;5.32;;;1.80;;
51006;SDS011;37034;47.886;-3.904;2022-07-18T01:28:45;7.95;;;1.73;;
51006;SDS011;37034;47.886;-3.904;2022-07-18T01:31:12;2.92;;;1.60;;
51006;SDS011;37034;47.886;-3.904;2022-07-18T01:36:04;5.72;;;1.80;;
51006;SDS011;37034;47.886;-3.904;2022-07-18T01:38:31;7.10;;;2.03;;
51006;SDS011;37034;47.886;-3.904;2022-07-18T01:40:58;4.07;;;1.77;;
51006;SDS011;37034;47.886;-3.904;2022-07-18T01:43:25;5.93;;;2.03;;
51006;SDS011;37034;47.886;-3.904;2022-07-18T01:45:51;7.13;;;1.60;;
51006;SDS011;37034;47.886;-3.904;2022-07-18T01:48:17;4.05;;;1.60;;
51006;SDS011;37034;47.886;-3.904;2022-07-18T01:50:44;3.85;;;1.88;;
51006;SDS011;37034;47.886;-3.904;2022-07-18T01:53:10;3.85;;;1.67;;
51006;SDS011;37034;47.886;-3.904;2022-07-18T01:58:01;2.97;;;1.58;;
51006;SDS011;37034;47.886;-3.904;2022-07-18T02:00:27;3.35;;;1.55;;
51006;SDS011;37034;47.886;-3.904;2022-07-18T02:02:53;2.92;;;1.70;;
51006;SDS011;37034;47.886;-3.904;2022-07-18T02:05:19;2.83;;;1.65;;
51006;SDS011;37034;47.886;-3.904;2022-07-18T02:07:44;5.13;;;1.60;;
51006;SDS011;37034;47.886;-3.904;2022-07-18T02:12:37;7.10;;;1.63;;
51006;SDS011;37034;47.886;-3.904;2022-07-18T02:15:04;3.92;;;1.60;;
51006;SDS011;37034;47.886;-3.904;2022-07-18T02:17:32;9.13;;;1.50;;
51006;SDS011;37034;47.886;-3.904;2022-07-18T02:22:23;5.78;;;1.77;;
51006;SDS011;37034;47.886;-3.904;2022-07-18T02:24:49;5.22;;;2.00;;
51006;SDS011;37034;47.886;-3.904;2022-07-18T02:27:16;7.72;;;1.80;;
51006;SDS011;37034;47.886;-3.904;2022-07-18T02:32:07;3.25;;;1.58;;
51006;SDS011;37034;47.886;-3.904;2022-07-18T02:34:33;2.47;;;1.60;;
51006;SDS011;37034;47.886;-3.904;2022-07-18T02:36:59;3.78;;;1.45;;
51006;SDS011;37034;47.886;-3.904;2022-07-18T02:41:50;3.33;;;1.65;;
51006;SDS011;37034;47.886;-3.904;2022-07-18T02:46:41;3.78;;;1.50;;
51006;SDS011;37034;47.886;-3.904;2022-07-18T02:49:07;5.22;;;1.48;;
51006;SDS011;37034;47.886;-3.904;2022-07-18T02:51:33;4.28;;;1.50;;
51006;SDS011;37034;47.886;-3.904;2022-07-18T02:53:59;6.25;;;1.33;;
51006;SDS011;37034;47.886;-3.904;2022-07-18T02:56:24;5.78;;;1.70;;
51006;SDS011;37034;47.886;-3.904;2022-07-18T02:58:50;4.72;;;1.88;;
51006;SDS011;37034;47.886;-3.904;2022-07-18T03:01:16;5.00;;;1.63;;
51006;SDS011;37034;47.886;-3.904;2022-07-18T03:03:42;4.43;;;1.50;;
51006;SDS011;37034;47.886;-3.904;2022-07-18T03:08:33;8.05;;;1.65;;
51006;SDS011;37034;47.886;-3.904;2022-07-18T03:10:58;7.10;;;1.42;;
51006;SDS011;37034;47.886;-3.904;2022-07-18T03:13:24;3.42;;;1.35;;
51006;SDS011;37034;47.886;-3.904;2022-07-18T03:15:50;2.63;;;1.48;;
51006;SDS011;37034;47.886;-3.904;2022-07-18T03:18:16;3.90;;;1.55;;
51006;SDS011;37034;47.886;-3.904;2022-07-18T03:20:42;6.47;;;1.50;;
51006;SDS011;37034;47.886;-3.904;2022-07-18T03:25:34;4.40;;;1.70;;
51006;SDS011;37034;47.886;-3.904;2022-07-18T03:28:00;4.63;;;1.80;;
51006;SDS011;37034;47.886;-3.904;2022-07-18T03:30:25;4.90;;;1.50;;
51006;SDS011;37034;47.886;-3.904;2022-07-18T03:32:51;3.50;;;1.35;;
51006;SDS011;37034;47.886;-3.904;2022-07-18T03:35:17;3.15;;;1.38;;
51006;SDS011;37034;47.886;-3.904;2022-07-18T03:37:42;3.30;;;1.50;;
51006;SDS011;37034;47.886;-3.904;2022-07-18T03:40:08;4.15;;;1.98;;
51006;SDS011;37034;47.886;-3.904;2022-07-18T03:42:38;7.18;;;1.58;;
51006;SDS011;37034;47.886;-3.904;2022-07-18T03:45:05;5.22;;;1.92;;
51006;SDS011;37034;47.886;-3.904;2022-07-18T03:47:31;4.93;;;1.77;;
51006;SDS011;37034;47.886;-3.904;2022-07-18T03:49:57;3.88;;;1.48;;
51006;SDS011;37034;47.886;-3.904;2022-07-18T03:52:23;4.57;;;1.70;;
51006;SDS011;37034;47.886;-3.904;2022-07-18T03:54:49;5.90;;;1.73;;
51006;SDS011;37034;47.886;-3.904;2022-07-18T03:57:14;8.20;;;1.45;;
51006;SDS011;37034;47.886;-3.904;2022-07-18T03:59:40;6.38;;;1.88;;
51006;SDS011;37034;47.886;-3.904;2022-07-18T04:02:06;5.13;;;1.52;;
51006;SDS011;37034;47.886;-3.904;2022-07-18T04:04:31;8.48;;;1.63;;
51006;SDS011;37034;47.886;-3.904;2022-07-18T04:06:57;2.42;;;1.30;;
51006;SDS011;37034;47.886;-3.904;2022-07-18T04:09:24;5.28;;;1.55;;
51006;SDS011;37034;47.886;-3.904;2022-07-18T04:11:51;5.07;;;1.73;;
51006;SDS011;37034;47.886;-3.904;2022-07-18T04:14:17;5.63;;;1.33;;
51006;SDS011;37034;47.886;-3.904;2022-07-18T04:16:42;4.03;;;1.67;;
51006;SDS011;37034;47.886;-3.904;2022-07-18T04:21:34;5.75;;;1.50;;
51006;SDS011;37034;47.886;-3.904;2022-07-18T04:24:00;9.00;;;1.50;;
51006;SDS011;37034;47.886;-3.904;2022-07-18T04:26:25;3.63;;;1.40;;
51006;SDS011;37034;47.886;-3.904;2022-07-18T04:28:51;4.30;;;1.85;;
51006;SDS011;37034;47.886;-3.904;2022-07-18T04:31:17;6.95;;;1.80;;
51006;SDS011;37034;47.886;-3.904;2022-07-18T04:33:43;3.78;;;1.83;;
51006;SDS011;37034;47.886;-3.904;2022-07-18T04:36:09;3.22;;;1.50;;
51006;SDS011;37034;47.886;-3.904;2022-07-18T04:38:35;9.55;;;1.67;;
51006;SDS011;37034;47.886;-3.904;2022-07-18T04:41:02;6.95;;;2.15;;
51006;SDS011;37034;47.886;-3.904;2022-07-18T04:43:31;3.53;;;1.67;;
51006;SDS011;37034;47.886;-3.904;2022-07-18T04:45:57;4.60;;;1.52;;
51006;SDS011;37034;47.886;-3.904;2022-07-18T04:50:48;7.22;;;1.83;;
51006;SDS011;37034;47.886;-3.904;2022-07-18T04:53:14;3.28;;;1.40;;
51006;SDS011;37034;47.886;-3.904;2022-07-18T04:55:40;3.15;;;1.58;;
51006;SDS011;37034;47.886;-3.904;2022-07-18T04:58:05;7.35;;;1.60;;
51006;SDS011;37034;47.886;-3.904;2022-07-18T05:00:31;10.75;;;1.98;;
51006;SDS011;37034;47.886;-3.904;2022-07-18T05:02:57;3.63;;;1.50;;
51006;SDS011;37034;47.886;-3.904;2022-07-18T05:05:23;8.32;;;1.90;;
51006;SDS011;37034;47.886;-3.904;2022-07-18T05:07:52;5.07;;;1.60;;
51006;SDS011;37034;47.886;-3.904;2022-07-18T05:10:19;4.70;;;1.52;;
51006;SDS011;37034;47.886;-3.904;2022-07-18T05:12:46;5.13;;;1.50;;
51006;SDS011;37034;47.886;-3.904;2022-07-18T05:15:15;2.53;;;1.50;;
51006;SDS011;37034;47.886;-3.904;2022-07-18T05:17:42;3.78;;;1.75;;
51006;SDS011;37034;47.886;-3.904;2022-07-18T05:20:11;4.03;;;1.60;;
51006;SDS011;37034;47.886;-3.904;2022-07-18T05:22:38;3.03;;;1.70;;
51006;SDS011;37034;47.886;-3.904;2022-07-18T05:27:30;3.72;;;1.50;;
51006;SDS011;37034;47.886;-3.904;2022-07-18T05:29:56;3.38;;;1.40;;
51006;SDS011;37034;47.886;-3.904;2022-07-18T05:32:24;3.10;;;1.50;;
51006;SDS011;37034;47.886;-3.904;2022-07-18T05:34:53;6.47;;;1.60;;
51006;SDS011;37034;47.886;-3.904;2022-07-18T05:37:18;6.60;;;1.60;;
51006;SDS011;37034;47.886;-3.904;2022-07-18T05:39:44;3.42;;;1.40;;
51006;SDS011;37034;47.886;-3.904;2022-07-18T05:44:36;5.05;;;1.90;;
51006;SDS011;37034;47.886;-3.904;2022-07-18T05:47:02;8.07;;;1.40;;
51006;SDS011;37034;47.886;-3.904;2022-07-18T05:49:27;4.70;;;1.40;;
51006;SDS011;37034;47.886;-3.904;2022-07-18T05:51:53;2.65;;;1.48;;
51006;SDS011;37034;47.886;-3.904;2022-07-18T05:54:19;3.58;;;1.67;;
51006;SDS011;37034;47.886;-3.904;2022-07-18T05:56:49;6.32;;;1.52;;
51006;SDS011;37034;47.886;-3.904;2022-07-18T05:59:16;5.82;;;1.70;;
51006;SDS011;37034;47.886;-3.904;2022-07-18T06:01:42;5.20;;;1.80;;
51006;SDS011;37034;47.886;-3.904;2022-07-18T06:04:08;3.30;;;1.50;;
51006;SDS011;37034;47.886;-3.904;2022-07-18T06:06:34;3.75;;;1.50;;
51006;SDS011;37034;47.886;-3.904;2022-07-18T06:08:59;4.20;;;1.80;;
51006;SDS011;37034;47.886;-3.904;2022-07-18T06:11:25;4.88;;;1.48;;
51006;SDS011;37034;47.886;-3.904;2022-07-18T06:13:51;3.95;;;1.52;;
51006;SDS011;37034;47.886;-3.904;2022-07-18T06:16:16;4.78;;;1.75;;
51006;SDS011;37034;47.886;-3.904;2022-07-18T06:18:42;4.75;;;1.60;;
51006;SDS011;37034;47.886;-3.904;2022-07-18T06:21:08;5.80;;;1.73;;
51006;SDS011;37034;47.886;-3.904;2022-07-18T06:23:34;4.53;;;1.90;;
51006;SDS011;37034;47.886;-3.904;2022-07-18T06:26:00;7.43;;;1.63;;
51006;SDS011;37034;47.886;-3.904;2022-07-18T06:30:53;4.82;;;1.58;;
51006;SDS011;37034;47.886;-3.904;2022-07-18T06:35:45;4.25;;;1.63;;
51006;SDS011;37034;47.886;-3.904;2022-07-18T06:38:14;7.85;;;1.85;;
51006;SDS011;37034;47.886;-3.904;2022-07-18T06:40:40;3.50;;;1.60;;
51006;SDS011;37034;47.886;-3.904;2022-07-18T06:45:32;3.83;;;1.70;;
51006;SDS011;37034;47.886;-3.904;2022-07-18T06:47:58;7.22;;;1.80;;
51006;SDS011;37034;47.886;-3.904;2022-07-18T06:52:49;7.50;;;1.88;;
51006;SDS011;37034;47.886;-3.904;2022-07-18T06:57:41;4.45;;;1.70;;
51006;SDS011;37034;47.886;-3.904;2022-07-18T07:00:08;5.97;;;1.90;;
51006;SDS011;37034;47.886;-3.904;2022-07-18T07:02:42;4.15;;;1.77;;
51006;SDS011;37034;47.886;-3.904;2022-07-18T07:05:13;5.53;;;1.85;;
51006;SDS011;37034;47.886;-3.904;2022-07-18T07:07:40;7.65;;;2.20;;
51006;SDS011;37034;47.886;-3.904;2022-07-18T07:10:06;3.72;;;1.73;;
51006;SDS011;37034;47.886;-3.904;2022-07-18T07:12:39;7.43;;;2.53;;
51006;SDS011;37034;47.886;-3.904;2022-07-18T07:15:07;4.45;;;1.88;;
51006;SDS011;37034;47.886;-3.904;2022-07-18T07:17:34;5.72;;;1.75;;
51006;SDS011;37034;47.886;-3.904;2022-07-18T07:20:00;5.32;;;1.98;;
51006;SDS011;37034;47.886;-3.904;2022-07-18T07:24:51;5.32;;;1.73;;
51006;SDS011;37034;47.886;-3.904;2022-07-18T07:29:42;8.23;;;2.20;;
51006;SDS011;37034;47.886;-3.904;2022-07-18T07:34:33;6.47;;;1.80;;
51006;SDS011;37034;47.886;-3.904;2022-07-18T07:39:25;3.25;;;1.90;;
51006;SDS011;37034;47.886;-3.904;2022-07-18T07:44:16;6.90;;;2.08;;
51006;SDS011;37034;47.886;-3.904;2022-07-18T07:49:07;6.32;;;2.10;;
51006;SDS011;37034;47.886;-3.904;2022-07-18T07:53:58;3.80;;;2.10;;
51006;SDS011;37034;47.886;-3.904;2022-07-18T07:56:24;6.20;;;2.03;;
51006;SDS011;37034;47.886;-3.904;2022-07-18T07:58:49;5.00;;;2.13;;
51006;SDS011;37034;47.886;-3.904;2022-07-18T08:03:44;7.00;;;2.08;;
51006;SDS011;37034;47.886;-3.904;2022-07-18T08:06:11;2.95;;;1.92;;
51006;SDS011;37034;47.886;-3.904;2022-07-18T08:08:37;5.47;;;2.10;;
51006;SDS011;37034;47.886;-3.904;2022-07-18T08:13:28;3.92;;;2.10;;
51006;SDS011;37034;47.886;-3.904;2022-07-18T08:15:53;6.53;;;2.15;;
51006;SDS011;37034;47.886;-3.904;2022-07-18T08:18:19;5.90;;;2.30;;
51006;SDS011;37034;47.886;-3.904;2022-07-18T08:20:45;7.78;;;2.28;;
51006;SDS011;37034;47.886;-3.904;2022-07-18T08:25:41;5.07;;;2.28;;
51006;SDS011;37034;47.886;-3.904;2022-07-18T08:28:08;6.90;;;2.65;;
51006;SDS011;37034;47.886;-3.904;2022-07-18T08:30:34;5.75;;;2.58;;
51006;SDS011;37034;47.886;-3.904;2022-07-18T08:33:00;7.18;;;2.22;;
51006;SDS011;37034;47.886;-3.904;2022-07-18T08:35:27;5.75;;;2.58;;
51006;SDS011;37034;47.886;-3.904;2022-07-18T08:37:53;5.20;;;2.38;;
51006;SDS011;37034;47.886;-3.904;2022-07-18T08:40:19;4.30;;;2.13;;
51006;SDS011;37034;47.886;-3.904;2022-07-18T08:42:44;6.22;;;2.63;;
51006;SDS011;37034;47.886;-3.904;2022-07-18T08:45:12;5.85;;;2.50;;
51006;SDS011;37034;47.886;-3.904;2022-07-18T08:47:38;4.30;;;2.72;;
51006;SDS011;37034;47.886;-3.904;2022-07-18T08:50:04;3.72;;;2.60;;
51006;SDS011;37034;47.886;-3.904;2022-07-18T08:52:30;6.03;;;2.65;;
51006;SDS011;37034;47.886;-3.904;2022-07-18T08:54:57;4.20;;;2.80;;
51006;SDS011;37034;47.886;-3.904;2022-07-18T08:57:23;5.90;;;2.75;;
51006;SDS011;37034;47.886;-3.904;2022-07-18T08:59:49;4.22;;;2.70;;
51006;SDS011;37034;47.886;-3.904;2022-07-18T09:02:15;7.97;;;2.78;;
51006;SDS011;37034;47.886;-3.904;2022-07-18T09:04:42;3.60;;;2.50;;
51006;SDS011;37034;47.886;-3.904;2022-07-18T09:07:09;3.75;;;2.70;;
51006;SDS011;37034;47.886;-3.904;2022-07-18T09:09:51;9.30;;;3.00;;
51006;SDS011;37034;47.886;-3.904;2022-07-18T09:12:19;3.42;;;2.30;;
51006;SDS011;37034;47.886;-3.904;2022-07-18T09:14:46;5.30;;;2.78;;
51006;SDS011;37034;47.886;-3.904;2022-07-18T09:19:57;8.15;;;2.72;;
51006;SDS011;37034;47.886;-3.904;2022-07-18T09:22:25;5.30;;;2.92;;
51006;SDS011;37034;47.886;-3.904;2022-07-18T09:24:56;8.75;;;2.63;;
51006;SDS011;37034;47.886;-3.904;2022-07-18T09:27:32;3.97;;;2.50;;
51006;SDS011;37034;47.886;-3.904;2022-07-18T09:35:08;9.57;;;3.10;;
51006;SDS011;37034;47.886;-3.904;2022-07-18T09:37:39;8.00;;;2.60;;
51006;SDS011;37034;47.886;-3.904;2022-07-18T09:40:15;8.48;;;3.08;;
51006;SDS011;37034;47.886;-3.904;2022-07-18T09:42:42;8.70;;;3.08;;
51006;SDS011;37034;47.886;-3.904;2022-07-18T09:45:08;7.00;;;3.03;;
51006;SDS011;37034;47.886;-3.904;2022-07-18T09:47:55;8.20;;;3.00;;
51006;SDS011;37034;47.886;-3.904;2022-07-18T09:50:24;6.53;;;3.20;;
51006;SDS011;37034;47.886;-3.904;2022-07-18T09:52:56;7.88;;;3.40;;
51006;SDS011;37034;47.886;-3.904;2022-07-18T09:55:22;7.45;;;3.17;;
51006;SDS011;37034;47.886;-3.904;2022-07-18T09:58:04;5.72;;;3.10;;
51006;SDS011;37034;47.886;-3.904;2022-07-18T10:00:32;5.57;;;3.03;;
51006;SDS011;37034;47.886;-3.904;2022-07-18T10:02:59;4.65;;;3.13;;
51006;SDS011;37034;47.886;-3.904;2022-07-18T10:05:34;5.40;;;3.20;;
51006;SDS011;37034;47.886;-3.904;2022-07-18T10:08:03;5.97;;;3.00;;
51006;SDS011;37034;47.886;-3.904;2022-07-18T10:10:35;5.78;;;3.30;;
51006;SDS011;37034;47.886;-3.904;2022-07-18T10:13:03;6.40;;;3.28;;
51006;SDS011;37034;47.886;-3.904;2022-07-18T10:15:31;8.52;;;3.35;;
51006;SDS011;37034;47.886;-3.904;2022-07-18T10:17:59;4.88;;;3.03;;
51006;SDS011;37034;47.886;-3.904;2022-07-18T10:20:27;5.35;;;3.22;;
51006;SDS011;37034;47.886;-3.904;2022-07-18T10:23:07;6.95;;;3.50;;
51006;SDS011;37034;47.886;-3.904;2022-07-18T10:25:34;6.90;;;3.35;;
51006;SDS011;37034;47.886;-3.904;2022-07-18T10:28:03;4.18;;;3.70;;
51006;SDS011;37034;47.886;-3.904;2022-07-18T10:36:07;4.97;;;3.30;;
51006;SDS011;37034;47.886;-3.904;2022-07-18T10:38:34;7.35;;;3.70;;
51006;SDS011;37034;47.886;-3.904;2022-07-18T10:41:08;5.32;;;3.72;;
51006;SDS011;37034;47.886;-3.904;2022-07-18T10:43:34;6.00;;;3.83;;
51006;SDS011;37034;47.886;-3.904;2022-07-18T10:46:06;8.00;;;3.92;;
51006;SDS011;37034;47.886;-3.904;2022-07-18T10:58:54;8.90;;;3.85;;
51006;SDS011;37034;47.886;-3.904;2022-07-18T11:01:21;4.32;;;3.90;;
51006;SDS011;37034;47.886;-3.904;2022-07-18T11:03:49;6.28;;;4.45;;
51006;SDS011;37034;47.886;-3.904;2022-07-18T11:06:15;9.50;;;4.20;;
51006;SDS011;37034;47.886;-3.904;2022-07-18T11:08:41;5.38;;;4.15;;
51006;SDS011;37034;47.886;-3.904;2022-07-18T11:11:10;6.68;;;4.20;;
51006;SDS011;37034;47.886;-3.904;2022-07-18T11:13:38;4.32;;;3.80;;
51006;SDS011;37034;47.886;-3.904;2022-07-18T11:21:16;5.90;;;4.43;;
51006;SDS011;37034;47.886;-3.904;2022-07-18T11:23:42;9.27;;;4.35;;
51006;SDS011;37034;47.886;-3.904;2022-07-18T11:26:21;8.23;;;4.28;;
51006;SDS011;37034;47.886;-3.904;2022-07-18T11:28:49;9.55;;;4.20;;
51006;SDS011;37034;47.886;-3.904;2022-07-18T11:31:42;5.32;;;4.45;;
51006;SDS011;37034;47.886;-3.904;2022-07-18T11:34:08;6.50;;;4.60;;
51006;SDS011;37034;47.886;-3.904;2022-07-18T11:36:34;6.10;;;4.50;;
51006;SDS011;37034;47.886;-3.904;2022-07-18T11:39:03;11.48;;;4.53;;
51006;SDS011;37034;47.886;-3.904;2022-07-18T11:41:29;7.13;;;4.50;;
51006;SDS011;37034;47.886;-3.904;2022-07-18T11:43:55;6.00;;;4.60;;
51006;SDS011;37034;47.886;-3.904;2022-07-18T11:46:23;12.30;;;4.70;;
51006;SDS011;37034;47.886;-3.904;2022-07-18T11:49:00;6.65;;;4.60;;
51006;SDS011;37034;47.886;-3.904;2022-07-18T11:51:36;7.45;;;4.80;;
51006;SDS011;37034;47.886;-3.904;2022-07-18T11:54:03;8.32;;;4.70;;
51006;SDS011;37034;47.886;-3.904;2022-07-18T11:56:30;9.43;;;5.03;;
51006;SDS011;37034;47.886;-3.904;2022-07-18T11:58:56;6.68;;;4.82;;
51006;SDS011;37034;47.886;-3.904;2022-07-18T12:01:29;7.65;;;5.05;;
51006;SDS011;37034;47.886;-3.904;2022-07-18T12:03:57;11.55;;;4.80;;
51006;SDS011;37034;47.886;-3.904;2022-07-18T12:06:23;7.35;;;4.47;;
51006;SDS011;37034;47.886;-3.904;2022-07-18T12:08:53;8.55;;;4.88;;
51006;SDS011;37034;47.886;-3.904;2022-07-18T12:11:33;9.88;;;4.72;;
51006;SDS011;37034;47.886;-3.904;2022-07-18T12:21:23;9.80;;;5.00;;
51006;SDS011;37034;47.886;-3.904;2022-07-18T12:23:49;5.38;;;4.40;;
51006;SDS011;37034;47.886;-3.904;2022-07-18T12:26:25;10.07;;;4.97;;
51006;SDS011;37034;47.886;-3.904;2022-07-18T12:29:07;7.15;;;4.50;;
51006;SDS011;37034;47.886;-3.904;2022-07-18T12:31:37;13.57;;;4.35;;
51006;SDS011;37034;47.886;-3.904;2022-07-18T12:34:14;7.85;;;4.30;;
51006;SDS011;37034;47.886;-3.904;2022-07-18T12:36:52;5.55;;;4.63;;
51006;SDS011;37034;47.886;-3.904;2022-07-18T12:39:27;8.25;;;4.85;;
51006;SDS011;37034;47.886;-3.904;2022-07-18T12:41:53;10.07;;;4.78;;
51006;SDS011;37034;47.886;-3.904;2022-07-18T12:44:19;6.05;;;4.82;;
51006;SDS011;37034;47.886;-3.904;2022-07-18T12:46:45;8.40;;;4.90;;
51006;SDS011;37034;47.886;-3.904;2022-07-18T12:49:11;5.28;;;4.43;;
51006;SDS011;37034;47.886;-3.904;2022-07-18T12:51:37;13.13;;;4.57;;
51006;SDS011;37034;47.886;-3.904;2022-07-18T12:54:02;5.57;;;4.78;;
51006;SDS011;37034;47.886;-3.904;2022-07-18T12:56:28;7.88;;;4.70;;
51006;SDS011;37034;47.886;-3.904;2022-07-18T12:58:54;5.18;;;4.53;;
51006;SDS011;37034;47.886;-3.904;2022-07-18T13:01:20;7.30;;;4.60;;
51006;SDS011;37034;47.886;-3.904;2022-07-18T13:03:46;6.55;;;4.72;;
51006;SDS011;37034;47.886;-3.904;2022-07-18T13:06:12;9.32;;;5.00;;
51006;SDS011;37034;47.886;-3.904;2022-07-18T13:08:37;6.50;;;4.90;;
51006;SDS011;37034;47.886;-3.904;2022-07-18T13:11:03;9.00;;;4.55;;
51006;SDS011;37034;47.886;-3.904;2022-07-18T13:13:29;11.15;;;5.05;;
51006;SDS011;37034;47.886;-3.904;2022-07-18T13:15:54;5.97;;;4.75;;
51006;SDS011;37034;47.886;-3.904;2022-07-18T13:18:20;9.38;;;5.22;;
51006;SDS011;37034;47.886;-3.904;2022-07-18T13:20:46;8.43;;;5.38;;
51006;SDS011;37034;47.886;-3.904;2022-07-18T13:23:11;7.28;;;4.88;;
51006;SDS011;37034;47.886;-3.904;2022-07-18T13:25:39;5.50;;;5.00;;
51006;SDS011;37034;47.886;-3.904;2022-07-18T13:28:04;9.18;;;5.05;;
51006;SDS011;37034;47.886;-3.904;2022-07-18T13:30:30;11.05;;;5.82;;
51006;SDS011;37034;47.886;-3.904;2022-07-18T13:32:56;10.95;;;5.25;;
51006;SDS011;37034;47.886;-3.904;2022-07-18T13:35:22;9.65;;;5.43;;
51006;SDS011;37034;47.886;-3.904;2022-07-18T13:37:47;6.03;;;5.43;;
51006;SDS011;37034;47.886;-3.904;2022-07-18T13:40:13;11.45;;;5.70;;
51006;SDS011;37034;47.886;-3.904;2022-07-18T13:42:40;9.95;;;4.80;;
51006;SDS011;37034;47.886;-3.904;2022-07-18T13:45:07;8.65;;;5.68;;
51006;SDS011;37034;47.886;-3.904;2022-07-18T13:47:33;6.60;;;5.32;;
51006;SDS011;37034;47.886;-3.904;2022-07-18T13:49:58;10.70;;;6.00;;
51006;SDS011;37034;47.886;-3.904;2022-07-18T13:52:24;9.50;;;5.10;;
51006;SDS011;37034;47.886;-3.904;2022-07-18T13:54:50;7.57;;;5.47;;
51006;SDS011;37034;47.886;-3.904;2022-07-18T13:57:19;11.40;;;5.65;;
51006;SDS011;37034;47.886;-3.904;2022-07-18T13:59:45;7.90;;;5.13;;
51006;SDS011;37034;47.886;-3.904;2022-07-18T14:02:11;6.47;;;5.53;;
51006;SDS011;37034;47.886;-3.904;2022-07-18T14:04:36;8.35;;;5.00;;
51006;SDS011;37034;47.886;-3.904;2022-07-18T14:07:02;11.80;;;5.88;;
51006;SDS011;37034;47.886;-3.904;2022-07-18T14:09:29;6.63;;;5.40;;
51006;SDS011;37034;47.886;-3.904;2022-07-18T14:11:55;6.47;;;5.07;;
51006;SDS011;37034;47.886;-3.904;2022-07-18T14:14:21;6.10;;;5.22;;
51006;SDS011;37034;47.886;-3.904;2022-07-18T14:16:47;9.75;;;5.88;;
51006;SDS011;37034;47.886;-3.904;2022-07-18T14:19:12;10.40;;;6.28;;
51006;SDS011;37034;47.886;-3.904;2022-07-18T14:21:38;11.48;;;6.05;;
51006;SDS011;37034;47.886;-3.904;2022-07-18T14:24:04;9.82;;;6.15;;
51006;SDS011;37034;47.886;-3.904;2022-07-18T14:26:30;7.82;;;6.78;;
51006;SDS011;37034;47.886;-3.904;2022-07-18T14:28:56;9.38;;;7.00;;
51006;SDS011;37034;47.886;-3.904;2022-07-18T14:31:21;10.90;;;7.72;;
51006;SDS011;37034;47.886;-3.904;2022-07-18T14:33:47;11.68;;;8.45;;
51006;SDS011;37034;47.886;-3.904;2022-07-18T14:36:13;11.98;;;8.88;;
51006;SDS011;37034;47.886;-3.904;2022-07-18T14:38:39;9.70;;;8.68;;
51006;SDS011;37034;47.886;-3.904;2022-07-18T14:41:05;10.95;;;7.93;;
51006;SDS011;37034;47.886;-3.904;2022-07-18T14:43:31;8.85;;;7.65;;
51006;SDS011;37034;47.886;-3.904;2022-07-18T14:45:57;8.68;;;7.78;;
51006;SDS011;37034;47.886;-3.904;2022-07-18T14:48:22;10.30;;;9.05;;
51006;SDS011;37034;47.886;-3.904;2022-07-18T14:50:48;11.88;;;8.93;;
51006;SDS011;37034;47.886;-3.904;2022-07-18T14:53:14;10.38;;;7.72;;
51006;SDS011;37034;47.886;-3.904;2022-07-18T14:55:40;8.07;;;7.20;;
51006;SDS011;37034;47.886;-3.904;2022-07-18T14:58:05;8.43;;;6.57;;
51006;SDS011;37034;47.886;-3.904;2022-07-18T15:00:31;8.48;;;6.20;;
51006;SDS011;37034;47.886;-3.904;2022-07-18T15:02:57;7.38;;;6.63;;
51006;SDS011;37034;47.886;-3.904;2022-07-18T15:05:22;7.05;;;5.70;;
51006;SDS011;37034;47.886;-3.904;2022-07-18T15:07:48;7.63;;;5.80;;
51006;SDS011;37034;47.886;-3.904;2022-07-18T15:10:13;5.65;;;5.15;;
51006;SDS011;37034;47.886;-3.904;2022-07-18T15:12:40;6.32;;;5.30;;
51006;SDS011;37034;47.886;-3.904;2022-07-18T15:15:06;8.55;;;5.57;;
51006;SDS011;37034;47.886;-3.904;2022-07-18T15:17:32;6.43;;;5.78;;
51006;SDS011;37034;47.886;-3.904;2022-07-18T15:19:58;6.43;;;5.72;;
51006;SDS011;37034;47.886;-3.904;2022-07-18T15:22:24;6.20;;;5.40;;
51006;SDS011;37034;47.886;-3.904;2022-07-18T15:24:50;10.13;;;6.40;;
51006;SDS011;37034;47.886;-3.904;2022-07-18T15:27:16;6.70;;;5.78;;
51006;SDS011;37034;47.886;-3.904;2022-07-18T15:29:41;7.90;;;5.80;;
51006;SDS011;37034;47.886;-3.904;2022-07-18T15:32:07;6.78;;;5.25;;
51006;SDS011;37034;47.886;-3.904;2022-07-18T15:34:36;8.00;;;5.57;;
51006;SDS011;37034;47.886;-3.904;2022-07-18T15:37:03;5.95;;;5.43;;
51006;SDS011;37034;47.886;-3.904;2022-07-18T15:39:30;6.13;;;5.53;;
51006;SDS011;37034;47.886;-3.904;2022-07-18T15:41:56;30.98;;;6.25;;
51006;SDS011;37034;47.886;-3.904;2022-07-18T15:44:22;7.13;;;5.20;;
51006;SDS011;37034;47.886;-3.904;2022-07-18T15:46:48;5.78;;;5.28;;
51006;SDS011;37034;47.886;-3.904;2022-07-18T15:49:13;7.03;;;5.30;;
51006;SDS011;37034;47.886;-3.904;2022-07-18T15:51:39;7.65;;;5.28;;
51006;SDS011;37034;47.886;-3.904;2022-07-18T15:54:11;7.43;;;5.30;;
51006;SDS011;37034;47.886;-3.904;2022-07-18T15:56:41;11.40;;;5.55;;
51006;SDS011;37034;47.886;-3.904;2022-07-18T15:59:07;6.50;;;5.32;;
51006;SDS011;37034;47.886;-3.904;2022-07-18T16:01:33;6.18;;;5.20;;
51006;SDS011;37034;47.886;-3.904;2022-07-18T16:03:58;6.15;;;5.22;;
51006;SDS011;37034;47.886;-3.904;2022-07-18T16:06:24;6.18;;;5.10;;
51006;SDS011;37034;47.886;-3.904;2022-07-18T16:08:50;5.65;;;5.15;;
51006;SDS011;37034;47.886;-3.904;2022-07-18T16:11:15;8.45;;;5.55;;
51006;SDS011;37034;47.886;-3.904;2022-07-18T16:13:41;10.23;;;5.10;;
51006;SDS011;37034;47.886;-3.904;2022-07-18T16:16:07;8.73;;;5.43;;
51006;SDS011;37034;47.886;-3.904;2022-07-18T16:18:33;8.05;;;5.40;;
51006;SDS011;37034;47.886;-3.904;2022-07-18T16:20:58;6.82;;;5.32;;
51006;SDS011;37034;47.886;-3.904;2022-07-18T16:23:24;8.27;;;5.55;;
51006;SDS011;37034;47.886;-3.904;2022-07-18T16:25:49;8.30;;;5.68;;
51006;SDS011;37034;47.886;-3.904;2022-07-18T16:28:15;7.63;;;5.70;;
51006;SDS011;37034;47.886;-3.904;2022-07-18T16:30:41;6.85;;;6.15;;
51006;SDS011;37034;47.886;-3.904;2022-07-18T16:33:07;7.68;;;5.80;;
51006;SDS011;37034;47.886;-3.904;2022-07-18T16:35:32;7.78;;;6.00;;
51006;SDS011;37034;47.886;-3.904;2022-07-18T16:37:58;7.55;;;5.82;;
51006;SDS011;37034;47.886;-3.904;2022-07-18T16:40:24;8.05;;;5.75;;